sensor_id;sensor_type;location;lat;lon;timestamp;pressure;altitude;pressure_sealevel;temperature;humidity
11712;BME280;5912;51.034;6.984;2023-04-08T00:01:57;56526.59;;;-142.13;78.41
11712;BME280;5912;51.034;6.984;2023-04-08T00:04:23;56508.56;;;-142.13;78.12
11712;BME280;5912;51.034;6.984;2023-04-08T00:06:48;56534.63;;;-142.13;78.16
11712;BME280;5912;51.034;6.984;2023-04-08T00:09:13;56520.59;;;-142.13;78.51
11712;BME280;5912;51.034;6.984;2023-04-08T00:11:39;56512.59;;;-142.13;78.55
11712;BME280;5912;51.034;6.984;2023-04-08T00:14:04;56512.59;;;-142.13;78.25
11712;BME280;5912;51.034;6.984;2023-04-08T00:16:30;56490.53;;;-142.13;78.07
11712;BME280;5912;51.034;6.984;2023-04-08T00:18:55;56506.56;;;-142.13;78.46
11712;BME280;5912;51.034;6.984;2023-04-08T00:21:21;56496.56;;;-142.13;78.33
11712;BME280;5912;51.034;6.984;2023-04-08T00:23:47;56504.56;;;-142.13;78.41
11712;BME280;5912;51.034;6.984;2023-04-08T00:26:13;56520.59;;;-142.13;78.33
11712;BME280;5912;51.034;6.984;2023-04-08T00:28:38;56482.53;;;-142.13;78.12
11712;BME280;5912;51.034;6.984;2023-04-08T00:31:03;56490.53;;;-142.13;78.27
11712;BME280;5912;51.034;6.984;2023-04-08T00:33:29;56488.53;;;-142.13;78.24
11712;BME280;5912;51.034;6.984;2023-04-08T00:35:55;56512.59;;;-142.13;78.39
11712;BME280;5912;51.034;6.984;2023-04-08T00:38:20;56500.56;;;-142.13;78.07
11712;BME280;5912;51.034;6.984;2023-04-08T00:40:46;56492.53;;;-142.13;78.13
11712;BME280;5912;51.034;6.984;2023-04-08T00:43:11;56510.56;;;-142.13;78.25
11712;BME280;5912;51.034;6.984;2023-04-08T00:45:37;56536.63;;;-142.13;78.45
11712;BME280;5912;51.034;6.984;2023-04-08T00:48:03;56502.56;;;-142.13;78.47
11712;BME280;5912;51.034;6.984;2023-04-08T00:50:28;56500.56;;;-142.13;78.30
11712;BME280;5912;51.034;6.984;2023-04-08T00:52:54;56516.59;;;-142.13;78.08
11712;BME280;5912;51.034;6.984;2023-04-08T00:55:19;56514.59;;;-142.13;77.90
11712;BME280;5912;51.034;6.984;2023-04-08T00:57:45;56508.56;;;-142.13;78.32
11712;BME280;5912;51.034;6.984;2023-04-08T01:00:11;56476.53;;;-142.13;78.28
11712;BME280;5912;51.034;6.984;2023-04-08T01:05:19;56510.56;;;-142.13;78.56
11712;BME280;5912;51.034;6.984;2023-04-08T01:07:49;56568.66;;;-142.13;78.09
11712;BME280;5912;51.034;6.984;2023-04-08T01:10:26;56500.56;;;-142.13;78.30
11712;BME280;5912;51.034;6.984;2023-04-08T01:12:55;56516.59;;;-142.13;78.44
11712;BME280;5912;51.034;6.984;2023-04-08T01:15:23;56514.59;;;-142.13;78.06
11712;BME280;5912;51.034;6.984;2023-04-08T01:17:52;56536.63;;;-142.13;78.21
11712;BME280;5912;51.034;6.984;2023-04-08T01:20:19;56492.53;;;-142.13;78.30
11712;BME280;5912;51.034;6.984;2023-04-08T01:25:35;56504.56;;;-142.13;78.30
11712;BME280;5912;51.034;6.984;2023-04-08T01:28:12;56514.59;;;-142.13;78.37
11712;BME280;5912;51.034;6.984;2023-04-08T01:30:40;56532.63;;;-142.13;78.41
11712;BME280;5912;51.034;6.984;2023-04-08T01:33:06;56496.56;;;-142.13;78.58
11712;BME280;5912;51.034;6.984;2023-04-08T01:35:32;56502.56;;;-142.13;78.50
11712;BME280;5912;51.034;6.984;2023-04-08T01:37:58;56504.56;;;-142.13;78.40
11712;BME280;5912;51.034;6.984;2023-04-08T01:40:24;56500.56;;;-142.13;78.30
11712;BME280;5912;51.034;6.984;2023-04-08T01:42:54;56512.59;;;-142.13;77.97
11712;BME280;5912;51.034;6.984;2023-04-08T01:45:21;56520.59;;;-142.13;78.06
11712;BME280;5912;51.034;6.984;2023-04-08T01:47:48;56492.53;;;-142.13;78.10
11712;BME280;5912;51.034;6.984;2023-04-08T01:50:15;56514.59;;;-142.13;78.22
11712;BME280;5912;51.034;6.984;2023-04-08T01:52:43;56486.53;;;-142.13;78.17
11712;BME280;5912;51.034;6.984;2023-04-08T01:55:09;56496.56;;;-142.13;78.16
11712;BME280;5912;51.034;6.984;2023-04-08T01:57:36;56522.59;;;-142.13;78.45
11712;BME280;5912;51.034;6.984;2023-04-08T02:00:06;56522.59;;;-142.13;78.03
11712;BME280;5912;51.034;6.984;2023-04-08T02:02:33;56490.53;;;-142.13;78.50
11712;BME280;5912;51.034;6.984;2023-04-08T02:05:00;56528.59;;;-142.13;78.24
11712;BME280;5912;51.034;6.984;2023-04-08T02:07:25;56578.69;;;-142.13;78.02
11712;BME280;5912;51.034;6.984;2023-04-08T02:09:50;56512.59;;;-142.13;78.14
11712;BME280;5912;51.034;6.984;2023-04-08T02:12:16;56488.53;;;-142.13;78.45
11712;BME280;5912;51.034;6.984;2023-04-08T02:14:42;56476.53;;;-142.13;78.48
11712;BME280;5912;51.034;6.984;2023-04-08T02:17:10;56528.59;;;-142.13;78.33
11712;BME280;5912;51.034;6.984;2023-04-08T02:19:45;56512.59;;;-142.13;78.30
11712;BME280;5912;51.034;6.984;2023-04-08T02:22:17;56514.59;;;-142.13;78.48
11712;BME280;5912;51.034;6.984;2023-04-08T02:24:44;56504.56;;;-142.13;78.72
11712;BME280;5912;51.034;6.984;2023-04-08T02:27:10;56510.56;;;-142.13;78.18
11712;BME280;5912;51.034;6.984;2023-04-08T02:29:39;56500.56;;;-142.13;78.62
11712;BME280;5912;51.034;6.984;2023-04-08T02:32:07;56492.53;;;-142.13;78.53
11712;BME280;5912;51.034;6.984;2023-04-08T02:34:35;56504.56;;;-142.13;78.80
11712;BME280;5912;51.034;6.984;2023-04-08T02:37:01;56504.56;;;-142.13;78.57
11712;BME280;5912;51.034;6.984;2023-04-08T02:39:33;56478.53;;;-142.13;78.67
11712;BME280;5912;51.034;6.984;2023-04-08T02:41:58;56508.56;;;-142.13;78.63
11712;BME280;5912;51.034;6.984;2023-04-08T02:44:23;56488.53;;;-142.13;78.50
11712;BME280;5912;51.034;6.984;2023-04-08T02:46:49;56518.59;;;-142.13;78.52
11712;BME280;5912;51.034;6.984;2023-04-08T02:49:14;56520.59;;;-142.13;78.75
11712;BME280;5912;51.034;6.984;2023-04-08T02:51:40;56528.59;;;-142.13;78.48
11712;BME280;5912;51.034;6.984;2023-04-08T02:54:05;56496.56;;;-142.13;78.67
11712;BME280;5912;51.034;6.984;2023-04-08T02:56:30;56494.56;;;-142.13;78.79
11712;BME280;5912;51.034;6.984;2023-04-08T02:58:56;56512.59;;;-142.13;78.96
11712;BME280;5912;51.034;6.984;2023-04-08T03:01:21;56500.56;;;-142.13;78.99
11712;BME280;5912;51.034;6.984;2023-04-08T03:03:46;56504.56;;;-142.13;78.88
11712;BME280;5912;51.034;6.984;2023-04-08T03:06:11;56496.56;;;-142.13;78.90
11712;BME280;5912;51.034;6.984;2023-04-08T03:08:37;56514.59;;;-142.13;79.17
11712;BME280;5912;51.034;6.984;2023-04-08T03:11:02;56516.59;;;-142.13;78.82
11712;BME280;5912;51.034;6.984;2023-04-08T03:13:27;56510.56;;;-142.13;79.09
11712;BME280;5912;51.034;6.984;2023-04-08T03:15:54;56512.59;;;-142.13;79.27
11712;BME280;5912;51.034;6.984;2023-04-08T03:18:19;56504.56;;;-142.13;78.85
11712;BME280;5912;51.034;6.984;2023-04-08T03:20:45;56532.63;;;-142.13;78.99
11712;BME280;5912;51.034;6.984;2023-04-08T03:23:10;56518.59;;;-142.13;78.91
11712;BME280;5912;51.034;6.984;2023-04-08T03:25:36;56496.56;;;-142.13;79.25
11712;BME280;5912;51.034;6.984;2023-04-08T03:28:01;56498.56;;;-142.13;79.36
11712;BME280;5912;51.034;6.984;2023-04-08T03:33:48;56500.56;;;-142.13;79.69
11712;BME280;5912;51.034;6.984;2023-04-08T03:36:13;56510.56;;;-142.13;79.63
11712;BME280;5912;51.034;6.984;2023-04-08T03:38:39;56498.56;;;-142.13;79.19
11712;BME280;5912;51.034;6.984;2023-04-08T03:41:04;56532.63;;;-142.13;79.46
11712;BME280;5912;51.034;6.984;2023-04-08T03:43:30;56502.56;;;-142.13;79.14
11712;BME280;5912;51.034;6.984;2023-04-08T03:45:55;56516.59;;;-142.13;79.41
11712;BME280;5912;51.034;6.984;2023-04-08T03:48:21;56500.56;;;-142.13;79.82
11712;BME280;5912;51.034;6.984;2023-04-08T03:50:46;56528.59;;;-142.13;79.75
11712;BME280;5912;51.034;6.984;2023-04-08T03:53:12;56500.56;;;-142.13;79.86
11712;BME280;5912;51.034;6.984;2023-04-08T03:55:38;56470.50;;;-142.13;79.55
11712;BME280;5912;51.034;6.984;2023-04-08T03:58:03;56510.56;;;-142.13;79.69
11712;BME280;5912;51.034;6.984;2023-04-08T04:00:29;56512.59;;;-142.13;79.83
11712;BME280;5912;51.034;6.984;2023-04-08T04:02:54;56508.56;;;-142.13;79.66
11712;BME280;5912;51.034;6.984;2023-04-08T04:05:32;56524.59;;;-142.13;79.58
11712;BME280;5912;51.034;6.984;2023-04-08T04:07:57;56512.59;;;-142.13;79.67
11712;BME280;5912;51.034;6.984;2023-04-08T04:10:23;56504.56;;;-142.13;79.50
11712;BME280;5912;51.034;6.984;2023-04-08T04:12:49;56480.53;;;-142.13;79.87
11712;BME280;5912;51.034;6.984;2023-04-08T04:15:14;56502.56;;;-142.13;79.29
11712;BME280;5912;51.034;6.984;2023-04-08T04:17:39;56524.59;;;-142.13;79.55
11712;BME280;5912;51.034;6.984;2023-04-08T04:20:05;56520.59;;;-142.13;79.83
11712;BME280;5912;51.034;6.984;2023-04-08T04:22:31;56492.53;;;-142.13;79.25
11712;BME280;5912;51.034;6.984;2023-04-08T04:24:56;56496.56;;;-142.13;79.30
11712;BME280;5912;51.034;6.984;2023-04-08T04:27:21;56510.56;;;-142.13;79.78
11712;BME280;5912;51.034;6.984;2023-04-08T04:29:47;56512.59;;;-142.13;79.60
11712;BME280;5912;51.034;6.984;2023-04-08T04:32:12;56470.50;;;-142.13;79.55
11712;BME280;5912;51.034;6.984;2023-04-08T04:34:37;56496.56;;;-142.13;79.53
11712;BME280;5912;51.034;6.984;2023-04-08T04:37:02;56504.56;;;-142.13;79.23
11712;BME280;5912;51.034;6.984;2023-04-08T04:39:28;56492.53;;;-142.13;79.41
11712;BME280;5912;51.034;6.984;2023-04-08T04:41:53;56532.63;;;-142.13;79.59
11712;BME280;5912;51.034;6.984;2023-04-08T04:44:19;56532.63;;;-142.13;79.50
11712;BME280;5912;51.034;6.984;2023-04-08T04:46:44;56496.56;;;-142.13;79.27
11712;BME280;5912;51.034;6.984;2023-04-08T04:49:10;56492.53;;;-142.13;79.31
11712;BME280;5912;51.034;6.984;2023-04-08T04:51:35;56518.59;;;-142.13;79.09
11712;BME280;5912;51.034;6.984;2023-04-08T04:54:00;56488.53;;;-142.13;79.24
11712;BME280;5912;51.034;6.984;2023-04-08T04:56:26;56510.56;;;-142.13;79.45
11712;BME280;5912;51.034;6.984;2023-04-08T04:58:51;56512.59;;;-142.13;79.45
11712;BME280;5912;51.034;6.984;2023-04-08T05:01:17;56512.59;;;-142.13;79.22
11712;BME280;5912;51.034;6.984;2023-04-08T05:03:42;56500.56;;;-142.13;78.81
11712;BME280;5912;51.034;6.984;2023-04-08T05:06:07;56516.59;;;-142.13;78.97
11712;BME280;5912;51.034;6.984;2023-04-08T05:08:33;56488.53;;;-142.13;78.85
11712;BME280;5912;51.034;6.984;2023-04-08T05:10:58;56524.59;;;-142.13;78.96
11712;BME280;5912;51.034;6.984;2023-04-08T05:13:27;56506.56;;;-142.13;78.97
11712;BME280;5912;51.034;6.984;2023-04-08T05:15:52;56500.56;;;-142.13;79.24
11712;BME280;5912;51.034;6.984;2023-04-08T05:18:17;56534.63;;;-142.13;79.06
11712;BME280;5912;51.034;6.984;2023-04-08T05:20:42;56514.59;;;-142.13;78.77
11712;BME280;5912;51.034;6.984;2023-04-08T05:23:08;56512.59;;;-142.13;78.83
11712;BME280;5912;51.034;6.984;2023-04-08T05:25:33;56520.59;;;-142.13;78.80
11712;BME280;5912;51.034;6.984;2023-04-08T05:27:59;56532.63;;;-142.13;78.58
11712;BME280;5912;51.034;6.984;2023-04-08T05:30:24;56512.59;;;-142.13;78.38
11712;BME280;5912;51.034;6.984;2023-04-08T05:32:49;56524.59;;;-142.13;78.39
11712;BME280;5912;51.034;6.984;2023-04-08T05:35:15;56518.59;;;-142.13;78.48
11712;BME280;5912;51.034;6.984;2023-04-08T05:37:40;56522.59;;;-142.13;78.35
11712;BME280;5912;51.034;6.984;2023-04-08T05:40:06;56516.59;;;-142.13;78.55
11712;BME280;5912;51.034;6.984;2023-04-08T05:42:31;56520.59;;;-142.13;78.79
11712;BME280;5912;51.034;6.984;2023-04-08T05:44:57;56512.59;;;-142.13;78.00
11712;BME280;5912;51.034;6.984;2023-04-08T05:47:22;56534.63;;;-142.13;78.11
11712;BME280;5912;51.034;6.984;2023-04-08T05:49:47;56522.59;;;-142.13;78.24
11712;BME280;5912;51.034;6.984;2023-04-08T05:52:13;56488.53;;;-142.13;77.94
11712;BME280;5912;51.034;6.984;2023-04-08T05:54:42;56490.53;;;-142.13;77.88
11712;BME280;5912;51.034;6.984;2023-04-08T05:57:07;56514.59;;;-142.13;77.95
11712;BME280;5912;51.034;6.984;2023-04-08T05:59:33;56482.53;;;-142.13;77.67
11712;BME280;5912;51.034;6.984;2023-04-08T06:01:58;56512.59;;;-142.13;77.62
11712;BME280;5912;51.034;6.984;2023-04-08T06:04:23;56486.53;;;-142.13;77.54
11712;BME280;5912;51.034;6.984;2023-04-08T06:06:48;56508.56;;;-142.13;77.37
11712;BME280;5912;51.034;6.984;2023-04-08T06:09:14;56516.59;;;-142.13;77.00
11712;BME280;5912;51.034;6.984;2023-04-08T06:11:39;56492.53;;;-142.13;76.87
11712;BME280;5912;51.034;6.984;2023-04-08T06:14:05;56508.56;;;-142.13;76.33
11712;BME280;5912;51.034;6.984;2023-04-08T06:16:30;56468.50;;;-142.13;76.46
11712;BME280;5912;51.034;6.984;2023-04-08T06:19:20;56474.53;;;-142.13;75.49
11712;BME280;5912;51.034;6.984;2023-04-08T06:21:45;56468.50;;;-142.13;75.25
11712;BME280;5912;51.034;6.984;2023-04-08T06:24:11;56456.50;;;-142.13;74.85
11712;BME280;5912;51.034;6.984;2023-04-08T06:26:36;56484.53;;;-142.13;74.81
11712;BME280;5912;51.034;6.984;2023-04-08T06:29:01;56502.56;;;-142.13;74.39
11712;BME280;5912;51.034;6.984;2023-04-08T06:31:27;56480.53;;;-142.13;74.33
11712;BME280;5912;51.034;6.984;2023-04-08T06:33:53;56480.53;;;-142.13;73.83
11712;BME280;5912;51.034;6.984;2023-04-08T06:36:19;56476.53;;;-142.13;73.78
11712;BME280;5912;51.034;6.984;2023-04-08T06:38:45;56484.53;;;-142.13;73.87
11712;BME280;5912;51.034;6.984;2023-04-08T06:41:10;56448.47;;;-142.13;73.39
11712;BME280;5912;51.034;6.984;2023-04-08T06:43:35;56462.50;;;-142.13;72.92
11712;BME280;5912;51.034;6.984;2023-04-08T06:46:02;56458.50;;;-142.13;72.95
11712;BME280;5912;51.034;6.984;2023-04-08T06:48:27;56454.47;;;-142.13;72.16
11712;BME280;5912;51.034;6.984;2023-04-08T06:50:58;56454.47;;;-142.13;71.62
11712;BME280;5912;51.034;6.984;2023-04-08T06:53:25;56430.44;;;-142.13;71.30
11712;BME280;5912;51.034;6.984;2023-04-08T06:55:52;56442.47;;;-142.13;70.74
11712;BME280;5912;51.034;6.984;2023-04-08T06:58:17;56450.47;;;-142.13;69.76
11712;BME280;5912;51.034;6.984;2023-04-08T07:00:42;56438.47;;;-142.13;69.15
11712;BME280;5912;51.034;6.984;2023-04-08T07:03:08;56444.47;;;-142.13;68.97
11712;BME280;5912;51.034;6.984;2023-04-08T07:05:35;56456.50;;;-142.13;68.90
11712;BME280;5912;51.034;6.984;2023-04-08T07:08:01;56436.47;;;-142.13;68.20
11712;BME280;5912;51.034;6.984;2023-04-08T07:10:26;56424.44;;;-142.13;68.27
11712;BME280;5912;51.034;6.984;2023-04-08T07:12:52;56440.47;;;-142.13;68.28
11712;BME280;5912;51.034;6.984;2023-04-08T07:15:18;56444.47;;;-142.13;68.59
11712;BME280;5912;51.034;6.984;2023-04-08T07:17:43;56454.47;;;-142.13;68.95
11712;BME280;5912;51.034;6.984;2023-04-08T07:20:09;56488.53;;;-142.13;68.92
11712;BME280;5912;51.034;6.984;2023-04-08T07:22:34;56480.53;;;-142.13;69.23
11712;BME280;5912;51.034;6.984;2023-04-08T07:25:00;56446.47;;;-142.13;69.62
11712;BME280;5912;51.034;6.984;2023-04-08T07:27:25;56470.50;;;-142.13;69.67
11712;BME280;5912;51.034;6.984;2023-04-08T07:29:53;56456.50;;;-142.13;69.98
11712;BME280;5912;51.034;6.984;2023-04-08T07:32:42;56484.53;;;-142.13;69.50
11712;BME280;5912;51.034;6.984;2023-04-08T07:35:08;56452.47;;;-142.13;68.76
11712;BME280;5912;51.034;6.984;2023-04-08T07:37:33;56444.47;;;-142.13;68.71
11712;BME280;5912;51.034;6.984;2023-04-08T07:39:58;56410.41;;;-142.13;68.55
11712;BME280;5912;51.034;6.984;2023-04-08T07:42:24;56412.41;;;-142.13;68.69
11712;BME280;5912;51.034;6.984;2023-04-08T07:44:50;56436.47;;;-142.13;68.01
11712;BME280;5912;51.034;6.984;2023-04-08T07:47:16;56434.44;;;-142.13;67.54
11712;BME280;5912;51.034;6.984;2023-04-08T07:49:42;56452.47;;;-142.13;66.85
11712;BME280;5912;51.034;6.984;2023-04-08T07:52:07;56424.44;;;-142.13;66.73
11712;BME280;5912;51.034;6.984;2023-04-08T07:54:32;56432.44;;;-142.13;65.77
11712;BME280;5912;51.034;6.984;2023-04-08T07:57:00;56432.44;;;-142.13;65.38
11712;BME280;5912;51.034;6.984;2023-04-08T07:59:27;56392.38;;;-142.13;64.83
11712;BME280;5912;51.034;6.984;2023-04-08T08:01:52;56422.44;;;-142.13;65.23
11712;BME280;5912;51.034;6.984;2023-04-08T08:04:17;56412.41;;;-142.13;64.45
11712;BME280;5912;51.034;6.984;2023-04-08T08:06:43;56410.41;;;-142.13;63.78
11712;BME280;5912;51.034;6.984;2023-04-08T08:09:08;56408.41;;;-142.13;63.84
11712;BME280;5912;51.034;6.984;2023-04-08T08:11:34;56418.44;;;-142.13;62.94
11712;BME280;5912;51.034;6.984;2023-04-08T08:13:59;56368.34;;;-142.13;63.32
11712;BME280;5912;51.034;6.984;2023-04-08T08:16:28;56392.38;;;-142.13;62.38
11712;BME280;5912;51.034;6.984;2023-04-08T08:18:53;56422.44;;;-142.13;62.54
11712;BME280;5912;51.034;6.984;2023-04-08T08:21:19;56408.41;;;-142.13;63.97
11712;BME280;5912;51.034;6.984;2023-04-08T08:23:44;56402.41;;;-142.13;63.80
11712;BME280;5912;51.034;6.984;2023-04-08T08:26:09;56430.44;;;-142.13;64.06
11712;BME280;5912;51.034;6.984;2023-04-08T08:28:35;56568.66;;;-142.13;64.29
11712;BME280;5912;51.034;6.984;2023-04-08T08:31:01;56422.44;;;-142.13;64.70
11712;BME280;5912;51.034;6.984;2023-04-08T08:33:30;56414.41;;;-142.13;64.60
11712;BME280;5912;51.034;6.984;2023-04-08T08:35:55;56404.41;;;-142.13;63.61
11712;BME280;5912;51.034;6.984;2023-04-08T08:38:22;56414.41;;;-142.13;62.39
11712;BME280;5912;51.034;6.984;2023-04-08T08:40:53;56400.41;;;-142.13;63.00
11712;BME280;5912;51.034;6.984;2023-04-08T08:43:19;56392.38;;;-142.13;61.88
11712;BME280;5912;51.034;6.984;2023-04-08T08:45:44;56424.44;;;-142.13;62.51
11712;BME280;5912;51.034;6.984;2023-04-08T08:48:09;56384.38;;;-142.13;61.53
11712;BME280;5912;51.034;6.984;2023-04-08T08:50:35;56396.41;;;-142.13;62.47
11712;BME280;5912;51.034;6.984;2023-04-08T08:53:00;56404.41;;;-142.13;62.27
11712;BME280;5912;51.034;6.984;2023-04-08T08:55:29;56394.38;;;-142.13;62.04
11712;BME280;5912;51.034;6.984;2023-04-08T08:57:56;56400.41;;;-142.13;61.93
11712;BME280;5912;51.034;6.984;2023-04-08T09:00:39;56400.41;;;-142.13;62.03
11712;BME280;5912;51.034;6.984;2023-04-08T09:03:26;56392.38;;;-142.13;62.10
11712;BME280;5912;51.034;6.984;2023-04-08T09:05:56;56378.38;;;-142.13;61.97
11712;BME280;5912;51.034;6.984;2023-04-08T09:10:47;56394.38;;;-142.13;60.98
11712;BME280;5912;51.034;6.984;2023-04-08T09:13:13;56388.38;;;-142.13;59.97
11712;BME280;5912;51.034;6.984;2023-04-08T09:16:04;56392.38;;;-142.13;59.99
11712;BME280;5912;51.034;6.984;2023-04-08T09:22:03;56396.41;;;-142.13;59.38
11712;BME280;5912;51.034;6.984;2023-04-08T09:24:29;56404.41;;;-142.13;59.52
11712;BME280;5912;51.034;6.984;2023-04-08T09:26:55;56416.44;;;-142.13;59.75
11712;BME280;5912;51.034;6.984;2023-04-08T09:29:23;56410.41;;;-142.13;59.75
11712;BME280;5912;51.034;6.984;2023-04-08T09:31:52;56396.41;;;-142.13;60.02
11712;BME280;5912;51.034;6.984;2023-04-08T09:34:18;56350.31;;;-142.13;60.30
11712;BME280;5912;51.034;6.984;2023-04-08T09:36:50;56388.38;;;-142.13;59.08
11712;BME280;5912;51.034;6.984;2023-04-08T09:39:16;56374.34;;;-142.13;58.39
11712;BME280;5912;51.034;6.984;2023-04-08T09:41:42;56376.34;;;-142.13;57.39
11712;BME280;5912;51.034;6.984;2023-04-08T09:44:09;56368.34;;;-142.13;57.09
11712;BME280;5912;51.034;6.984;2023-04-08T09:46:46;56366.34;;;-142.13;57.60
11712;BME280;5912;51.034;6.984;2023-04-08T09:49:25;56356.31;;;-142.13;55.08
11712;BME280;5912;51.034;6.984;2023-04-08T09:55:04;56322.28;;;-142.13;51.84
11712;BME280;5912;51.034;6.984;2023-04-08T09:57:40;56320.28;;;-142.13;50.77
11712;BME280;5912;51.034;6.984;2023-04-08T10:00:07;56316.25;;;-142.13;50.20
11712;BME280;5912;51.034;6.984;2023-04-08T10:02:55;56292.22;;;-142.13;48.96
11712;BME280;5912;51.034;6.984;2023-04-08T10:05:25;56328.28;;;-142.13;48.74
11712;BME280;5912;51.034;6.984;2023-04-08T10:07:51;56288.22;;;-142.13;48.89
11712;BME280;5912;51.034;6.984;2023-04-08T10:10:17;56280.22;;;-142.13;48.95
11712;BME280;5912;51.034;6.984;2023-04-08T10:12:43;56280.22;;;-142.13;48.46
11712;BME280;5912;51.034;6.984;2023-04-08T10:15:27;56300.25;;;-142.13;47.33
11712;BME280;5912;51.034;6.984;2023-04-08T10:17:55;56288.22;;;-142.13;47.53
11712;BME280;5912;51.034;6.984;2023-04-08T10:23:53;56328.28;;;-142.13;46.44
11712;BME280;5912;51.034;6.984;2023-04-08T10:25:50;56288.22;;;-142.13;46.04
11712;BME280;5912;51.034;6.984;2023-04-08T10:33:18;56244.16;;;-142.13;44.38
11712;BME280;5912;51.034;6.984;2023-04-08T10:35:54;56266.19;;;-142.13;43.83
11712;BME280;5912;51.034;6.984;2023-04-08T10:38:23;56294.22;;;-142.13;43.30
11712;BME280;5912;51.034;6.984;2023-04-08T10:40:48;56272.19;;;-142.13;43.16
11712;BME280;5912;51.034;6.984;2023-04-08T10:43:15;56324.28;;;-142.13;43.04
11712;BME280;5912;51.034;6.984;2023-04-08T10:45:42;56296.22;;;-142.13;43.75
11712;BME280;5912;51.034;6.984;2023-04-08T10:48:11;56290.22;;;-142.13;44.53
11712;BME280;5912;51.034;6.984;2023-04-08T10:50:36;56304.25;;;-142.13;44.90
11712;BME280;5912;51.034;6.984;2023-04-08T10:53:02;56308.25;;;-142.13;44.88
11712;BME280;5912;51.034;6.984;2023-04-08T10:55:27;56316.25;;;-142.13;44.48
11712;BME280;5912;51.034;6.984;2023-04-08T10:57:53;56296.22;;;-142.13;44.67
11712;BME280;5912;51.034;6.984;2023-04-08T11:00:31;56320.28;;;-142.13;44.57
11712;BME280;5912;51.034;6.984;2023-04-08T11:03:00;56266.19;;;-142.13;45.47
11712;BME280;5912;51.034;6.984;2023-04-08T11:05:25;56298.22;;;-142.13;46.02
11712;BME280;5912;51.034;6.984;2023-04-08T11:07:51;56284.22;;;-142.13;44.56
11712;BME280;5912;51.034;6.984;2023-04-08T11:10:17;56286.22;;;-142.13;43.38
11712;BME280;5912;51.034;6.984;2023-04-08T11:12:43;56292.22;;;-142.13;44.01
11712;BME280;5912;51.034;6.984;2023-04-08T11:15:09;56280.22;;;-142.13;43.64
11712;BME280;5912;51.034;6.984;2023-04-08T11:17:35;56288.22;;;-142.13;42.40
11712;BME280;5912;51.034;6.984;2023-04-08T11:20:00;56262.19;;;-142.13;41.29
11712;BME280;5912;51.034;6.984;2023-04-08T11:22:30;56280.22;;;-142.13;42.29
11712;BME280;5912;51.034;6.984;2023-04-08T11:24:57;56304.25;;;-142.13;42.61
11712;BME280;5912;51.034;6.984;2023-04-08T11:27:23;56264.19;;;-142.13;42.09
11712;BME280;5912;51.034;6.984;2023-04-08T11:29:51;56264.19;;;-142.13;42.91
11712;BME280;5912;51.034;6.984;2023-04-08T11:32:18;56280.22;;;-142.13;42.97
11712;BME280;5912;51.034;6.984;2023-04-08T11:34:44;56304.25;;;-142.13;43.27
11712;BME280;5912;51.034;6.984;2023-04-08T11:37:11;56294.22;;;-142.13;42.43
11712;BME280;5912;51.034;6.984;2023-04-08T11:39:42;56280.22;;;-142.13;42.97
11712;BME280;5912;51.034;6.984;2023-04-08T11:42:08;56304.25;;;-142.13;42.22
11712;BME280;5912;51.034;6.984;2023-04-08T11:44:33;56300.25;;;-142.13;43.05
11712;BME280;5912;51.034;6.984;2023-04-08T11:46:58;56298.22;;;-142.13;43.10
11712;BME280;5912;51.034;6.984;2023-04-08T11:49:26;56312.25;;;-142.13;43.02
11712;BME280;5912;51.034;6.984;2023-04-08T11:51:58;56302.25;;;-142.13;42.93
11712;BME280;5912;51.034;6.984;2023-04-08T11:54:28;56304.25;;;-142.13;42.91
11712;BME280;5912;51.034;6.984;2023-04-08T11:56:54;56270.19;;;-142.13;41.79
11712;BME280;5912;51.034;6.984;2023-04-08T11:59:20;56282.22;;;-142.13;41.54
11712;BME280;5912;51.034;6.984;2023-04-08T12:01:45;56264.19;;;-142.13;40.69
11712;BME280;5912;51.034;6.984;2023-04-08T12:04:11;56282.22;;;-142.13;39.96
11712;BME280;5912;51.034;6.984;2023-04-08T12:06:36;56248.16;;;-142.13;38.38
11712;BME280;5912;51.034;6.984;2023-04-08T12:09:01;56210.09;;;-142.13;38.40
11712;BME280;5912;51.034;6.984;2023-04-08T12:11:27;56240.16;;;-142.13;39.19
11712;BME280;5912;51.034;6.984;2023-04-08T12:13:52;56258.16;;;-142.13;38.33
11712;BME280;5912;51.034;6.984;2023-04-08T12:16:18;56268.19;;;-142.13;39.12
11712;BME280;5912;51.034;6.984;2023-04-08T12:18:44;56276.19;;;-142.13;38.11
11712;BME280;5912;51.034;6.984;2023-04-08T12:21:09;56248.16;;;-142.13;37.30
11712;BME280;5912;51.034;6.984;2023-04-08T12:23:35;56288.22;;;-142.13;37.41
11712;BME280;5912;51.034;6.984;2023-04-08T12:26:00;56318.25;;;-142.13;36.56
11712;BME280;5912;51.034;6.984;2023-04-08T12:28:26;56296.22;;;-142.13;36.75
11712;BME280;5912;51.034;6.984;2023-04-08T12:30:51;56308.25;;;-142.13;36.60
11712;BME280;5912;51.034;6.984;2023-04-08T12:33:17;56312.25;;;-142.13;37.03
11712;BME280;5912;51.034;6.984;2023-04-08T12:35:43;56318.25;;;-142.13;37.61
11712;BME280;5912;51.034;6.984;2023-04-08T12:38:08;56336.28;;;-142.13;38.25
11712;BME280;5912;51.034;6.984;2023-04-08T12:43:56;56316.25;;;-142.13;37.49
11712;BME280;5912;51.034;6.984;2023-04-08T12:46:21;56338.31;;;-142.13;37.92
11712;BME280;5912;51.034;6.984;2023-04-08T12:48:46;56310.25;;;-142.13;38.04
11712;BME280;5912;51.034;6.984;2023-04-08T12:51:47;56348.31;;;-142.13;38.62
11712;BME280;5912;51.034;6.984;2023-04-08T12:54:13;56314.25;;;-142.13;38.92
11712;BME280;5912;51.034;6.984;2023-04-08T12:56:38;56316.25;;;-142.13;38.81
11712;BME280;5912;51.034;6.984;2023-04-08T12:59:03;56332.28;;;-142.13;38.56
11712;BME280;5912;51.034;6.984;2023-04-08T13:01:29;56302.25;;;-142.13;38.37
11712;BME280;5912;51.034;6.984;2023-04-08T13:03:55;56318.25;;;-142.13;38.21
11712;BME280;5912;51.034;6.984;2023-04-08T13:06:20;56384.38;;;-142.13;38.38
11712;BME280;5912;51.034;6.984;2023-04-08T13:08:45;56310.25;;;-142.13;37.68
11712;BME280;5912;51.034;6.984;2023-04-08T13:11:11;56314.25;;;-142.13;38.17
11712;BME280;5912;51.034;6.984;2023-04-08T13:13:36;56312.25;;;-142.13;37.92
11712;BME280;5912;51.034;6.984;2023-04-08T13:16:02;56300.25;;;-142.13;38.01
11712;BME280;5912;51.034;6.984;2023-04-08T13:18:28;56292.22;;;-142.13;37.96